createdAt,value
2022-09-03T00:02:35.347Z,17.4
2022-09-03T00:12:35.717Z,17.3
2022-09-03T00:22:36.301Z,17.2
2022-09-03T00:42:38.017Z,16.6
2022-09-03T00:52:38.254Z,16
2022-09-03T01:12:39.900Z,15.2
2022-09-03T01:32:41.535Z,14.8
2022-09-03T01:42:42.556Z,14.6
2022-09-03T01:52:43.396Z,14.4
2022-09-03T02:12:44.006Z,14.1
2022-09-03T02:22:44.347Z,13.9
2022-09-03T02:32:45.183Z,13.9
2022-09-03T02:42:45.900Z,13.7
2022-09-03T02:52:46.781Z,13.7
2022-09-03T03:02:47.441Z,13.5
2022-09-03T03:12:47.746Z,13.4
2022-09-03T03:22:47.990Z,13.3
2022-09-03T03:42:49.795Z,13.1
2022-09-03T03:52:50.207Z,12.9
2022-09-03T04:02:50.425Z,12.9
2022-09-03T04:12:50.964Z,12.8
2022-09-03T04:22:52.030Z,12.7
2022-09-03T04:32:52.732Z,12.6
2022-09-03T04:42:53.423Z,12.5
2022-09-03T04:52:53.957Z,12.5
2022-09-03T05:02:54.404Z,12.5
2022-09-03T05:12:54.745Z,12.6
2022-09-03T05:22:54.996Z,12.7
2022-09-03T05:32:55.752Z,12.8
2022-09-03T05:42:56.659Z,12.9
2022-09-03T05:52:57.025Z,13
2022-09-03T06:02:57.733Z,13.3
2022-09-03T06:12:58.232Z,13.5
2022-09-03T06:22:59.210Z,13.8
2022-09-03T06:33:00.007Z,14.2
2022-09-03T06:43:00.177Z,14.7
2022-09-03T06:53:00.758Z,15.3
2022-09-03T07:03:01.205Z,15.8
2022-09-03T07:13:01.412Z,16.2
2022-09-03T07:23:02.470Z,16.8
2022-09-03T07:33:03.368Z,17.4
2022-09-03T07:43:03.623Z,18.1
2022-09-03T07:53:03.896Z,18.5
2022-09-03T08:03:04.914Z,18.9
2022-09-03T08:13:05.944Z,19.2
2022-09-03T08:23:06.758Z,19.5
2022-09-03T08:33:07.431Z,19.9
2022-09-03T08:43:07.844Z,20.4
2022-09-03T08:53:08.455Z,20.8
2022-09-03T09:03:08.691Z,21.2
2022-09-03T09:13:09.395Z,21.7
2022-09-03T09:23:09.730Z,22.2
2022-09-03T09:33:10.225Z,22.3
2022-09-03T09:43:10.435Z,22.8
2022-09-03T09:53:10.682Z,23.1
2022-09-03T10:03:11.326Z,23.2
2022-09-03T10:13:12.106Z,23.7
2022-09-03T10:13:33.893Z,23.7
2022-09-03T10:23:17.824Z,24
2022-09-03T10:33:18.880Z,24.1
2022-09-03T10:43:19.207Z,24.1
2022-09-03T10:53:19.373Z,24.5
2022-09-03T11:03:21.032Z,24.7
2022-09-03T11:13:20.504Z,25.2
2022-09-03T11:23:20.718Z,25.3
2022-09-03T11:33:21.325Z,25.6
2022-09-03T11:43:21.868Z,25.4
2022-09-03T12:03:23.134Z,26.2
2022-09-03T12:13:23.887Z,26.8
2022-09-03T12:23:24.654Z,27.3
2022-09-03T12:33:25.461Z,27.2
2022-09-03T12:43:40.850Z,26.8
2022-09-03T12:53:26.579Z,26.5
2022-09-03T13:03:27.460Z,27.7
2022-09-03T13:13:27.586Z,28.9
2022-09-03T13:23:28.249Z,28.3
2022-09-03T13:33:29.247Z,27.3
2022-09-03T13:43:29.479Z,26.9
2022-09-03T13:53:30.399Z,27.4
2022-09-03T14:03:30.906Z,27.3
2022-09-03T14:13:31.669Z,26.7
2022-09-03T14:33:32.996Z,27
2022-09-03T14:43:33.430Z,26.9
2022-09-03T14:53:34.430Z,26.9
2022-09-03T15:03:35.311Z,26.6
2022-09-03T15:13:35.933Z,27.8
2022-09-03T15:23:36.480Z,26.4
2022-09-03T15:33:37.427Z,26.4
2022-09-03T15:43:38.247Z,26.2
2022-09-03T15:53:39.299Z,26.6
2022-09-03T16:03:40.258Z,28.2
2022-09-03T16:13:40.978Z,27.1
2022-09-03T16:23:41.577Z,26
2022-09-03T16:33:42.385Z,25.7
2022-09-03T16:43:42.771Z,25.6
2022-09-03T16:53:42.727Z,25.5
2022-09-03T17:03:42.892Z,25.4
2022-09-03T17:23:43.780Z,25.2
2022-09-03T17:33:43.996Z,25.1
2022-09-03T17:43:44.145Z,24.8
2022-09-03T17:53:44.882Z,24.5
2022-09-03T18:03:45.504Z,24.3
2022-09-03T18:13:46.427Z,24
2022-09-03T18:23:46.954Z,23.7
2022-09-03T18:33:47.931Z,23.5
2022-09-03T18:43:48.354Z,23.3
2022-09-03T18:53:49.415Z,23.1
2022-09-03T19:03:49.772Z,22.9
2022-09-03T19:13:49.894Z,22.7
2022-09-03T19:33:50.370Z,22.4
2022-09-03T20:13:53.143Z,21.7
2022-09-03T20:23:53.465Z,21.3
2022-09-03T20:33:54.530Z,21.1
2022-09-03T20:43:54.998Z,20.8
2022-09-03T21:03:56.301Z,20.4
2022-09-03T21:13:56.486Z,20.2
2022-09-03T21:23:56.694Z,20
2022-09-03T21:53:59.028Z,19.6
2022-09-03T22:04:00.098Z,19.4
2022-09-03T22:14:00.699Z,19.2
2022-09-03T22:24:01.014Z,18.8
2022-09-03T22:34:01.697Z,18.4
2022-09-03T22:44:01.931Z,18
2022-09-03T22:54:02.291Z,17.7
2022-09-03T23:04:02.689Z,17.5
2022-09-03T23:14:03.366Z,17.3
2022-09-03T23:24:04.414Z,17.1
2022-09-03T23:34:05.452Z,16.9
2022-09-03T23:44:05.949Z,16.7
2022-09-03T23:54:06.579Z,16.6
